Wec Mondriaan — CQCY — position and weather

sailwx.info

Track history (hours):
 
Tides and Currents Weather Stations Pressure Air Temp Water Temp Dewpoint Dewpoint Depression Visibility Wind Speed Wind Dir Waves Ship Positions

Wec Mondriaan

Last reported at 2017-Nov-16 21:56 UTC. Time now 2017-Nov-17 17:44 UTC.
Position N 41°19' W 008°53'.

Length 134 m; draft 7 m.

Type: Ship (hazmat cat A). MMSI: 255805775.

Date/timePositionNaut miles runAvg speedWind from/ knotsBaromVisibWave heightAir tempDewpointWater temp
2017-Nov-16 21:56N 41°19' W 008°53'716.0
2017-Nov-16 21:30N 41°12' W 008°50'612.3
2017-Nov-16 21:00N 41°10' W 008°42'2 3.7
2017-Nov-16 20:30N 41°12' W 008°41'0 0.0
2017-Nov-16 20:00N 41°12' W 008°41'0 0.0
2017-Nov-16 19:30N 41°12' W 008°41'0 0.0
2017-Nov-16 19:00N 41°12' W 008°41'0 0.0
2017-Nov-16 18:27N 41°12' W 008°41'0 0.0
2017-Nov-16 18:00N 41°12' W 008°41'0 0.0
2017-Nov-16 17:30N 41°12' W 008°41'0 0.0
2017-Nov-16 17:00N 41°12' W 008°41'0 0.0
2017-Nov-16 16:30N 41°12' W 008°41'0 0.0
2017-Nov-16 16:00N 41°12' W 008°41'0 0.0
2017-Nov-16 15:30N 41°12' W 008°41'0 0.0
2017-Nov-16 15:00N 41°12' W 008°41'0 0.0
2017-Nov-16 14:30N 41°12' W 008°41'0 0.0
2017-Nov-16 14:00N 41°12' W 008°41'0 0.0
2017-Nov-16 13:30N 41°12' W 008°41'0 0.0
2017-Nov-16 13:00N 41°12' W 008°41'0 0.0
2017-Nov-16 12:30N 41°12' W 008°41'0 0.0
2017-Nov-16 12:00N 41°12' W 008°41'0 0.0
2017-Nov-16 11:30N 41°12' W 008°41'0 0.0
2017-Nov-16 11:00N 41°12' W 008°41'0 0.0
2017-Nov-16 10:30N 41°12' W 008°41'0 0.0
2017-Nov-16 10:00N 41°12' W 008°41'0 0.0
2017-Nov-16 09:30N 41°12' W 008°41'0 0.0
2017-Nov-16 09:00N 41°12' W 008°41'0 0.0
2017-Nov-16 08:30N 41°12' W 008°41'0 0.0
2017-Nov-16 08:00N 41°12' W 008°41'0 0.0
2017-Nov-16 07:30N 41°12' W 008°41'0 0.2
2017-Nov-16 07:01N 41°12' W 008°41'1 2.2
2017-Nov-16 06:30N 41°11' W 008°42'3 5.4
2017-Nov-16 06:01N 41°10' W 008°45'714.6
2017-Nov-16 05:31N 41°10' W 008°55'7 4.5
2017-Nov-16 03:53N 41°14' W 009°03'715.0
2017-Nov-16 03:25N 41°08' W 009°03'614.7
2017-Nov-16 03:00N 41°01' W 009°02'2114.9
2017-Nov-16 01:35N 40°40' W 009°02'116.4
2017-Nov-16 01:30N 40°39' W 009°03'4817.8
2017-Nov-15 22:48N 39°55' W 009°29'818.0
2017-Nov-15 22:20N 39°48' W 009°34'617.7
2017-Nov-15 22:00N 39°42' W 009°37'917.2
2017-Nov-15 21:30N 39°34' W 009°41'917.1
2017-Nov-15 21:00N 39°26' W 009°44'917.7
2017-Nov-15 20:30N 39°17' W 009°44'917.7
2017-Nov-15 20:00N 39°09' W 009°43'917.6
2017-Nov-15 19:30N 38°60' W 009°43'917.7
2017-Nov-15 19:01N 38°51' W 009°43'917.5
2017-Nov-15 18:31N 38°42' W 009°42'816.7
2017-Nov-15 18:01N 38°36' W 009°35'917.7
2017-Nov-15 17:30N 38°29' W 009°27'917.8
2017-Nov-15 17:00N 38°23' W 009°19'917.4
2017-Nov-15 16:31N 38°19' W 009°09'815.0
2017-Nov-15 16:00N 38°24' W 009°01'714.2
2017-Nov-15 15:30N 38°30' W 008°56'3 5.3
2017-Nov-15 14:58N 38°31' W 008°52'0 0.0
2017-Nov-15 14:28N 38°31' W 008°52'0 0.0
2017-Nov-15 13:55N 38°31' W 008°52'0 0.0
2017-Nov-15 13:28N 38°31' W 008°52'0 0.0
2017-Nov-15 12:58N 38°31' W 008°52'0 0.0
2017-Nov-15 12:28N 38°31' W 008°52'0 0.0
2017-Nov-15 11:49N 38°31' W 008°52'0 0.0
2017-Nov-15 11:28N 38°31' W 008°52'0 0.0
2017-Nov-15 10:58N 38°31' W 008°52'0 0.0
2017-Nov-15 10:28N 38°31' W 008°52'0 0.0
2017-Nov-15 09:58N 38°31' W 008°52'0 0.0
2017-Nov-15 09:16N 38°31' W 008°52'0 0.0
2017-Nov-15 08:58N 38°31' W 008°52'0 0.0
2017-Nov-15 08:28N 38°31' W 008°52'0 0.0
2017-Nov-15 07:58N 38°31' W 008°52'0 0.0
2017-Nov-15 07:25N 38°31' W 008°52'0 0.0
2017-Nov-15 06:58N 38°31' W 008°52'0 0.0
2017-Nov-15 06:28N 38°31' W 008°52'0 0.0
2017-Nov-15 05:58N 38°31' W 008°52'0 0.0
2017-Nov-15 05:28N 38°31' W 008°52'0 0.0
2017-Nov-15 04:58N 38°31' W 008°52'0 0.0
2017-Nov-15 04:25N 38°31' W 008°52'0 0.0
2017-Nov-15 03:58N 38°31' W 008°52'0 0.0
2017-Nov-15 03:28N 38°31' W 008°52'0 0.0
2017-Nov-15 02:58N 38°31' W 008°52'0 0.0
2017-Nov-15 02:28N 38°31' W 008°52'0 0.0
2017-Nov-15 01:58N 38°31' W 008°52'0 0.0
2017-Nov-15 01:28N 38°31' W 008°52'0 0.0
2017-Nov-15 00:58N 38°31' W 008°52'0 0.0
2017-Nov-15 00:28N 38°31' W 008°52'0 0.0
2017-Nov-14 23:58N 38°31' W 008°52'0 0.0
2017-Nov-14 23:31N 38°31' W 008°52'1 3.0
2017-Nov-14 23:01N 38°31' W 008°54'611.9
2017-Nov-14 22:30N 38°26' W 008°59'714.2
2017-Nov-14 22:01N 38°19' W 008°59'917.9
2017-Nov-14 21:31N 38°10' W 008°59'917.9
2017-Nov-14 21:01N 38°01' W 008°59'816.7
2017-Nov-14 20:31N 37°55' W 008°52'2 3.2
2017-Nov-14 20:00N 37°56' W 008°51'0 0.0
2017-Nov-14 19:30N 37°56' W 008°51'0 0.0
2017-Nov-14 19:00N 37°56' W 008°51'0 0.0
2017-Nov-14 18:30N 37°56' W 008°51'0 0.0
2017-Nov-14 18:00N 37°56' W 008°51'0 0.0
2017-Nov-14 17:30N 37°56' W 008°51'0 0.0
2017-Nov-14 17:00N 37°56' W 008°51'0 0.0
2017-Nov-14 16:30N 37°56' W 008°51'0 0.0
2017-Nov-14 16:00N 37°56' W 008°51'0 0.0
2017-Nov-14 15:30N 37°56' W 008°51'0 0.0
2017-Nov-14 15:00N 37°56' W 008°51'0 0.0
2017-Nov-14 14:30N 37°56' W 008°51'0 0.0
2017-Nov-14 14:00N 37°56' W 008°51'0 0.0
2017-Nov-14 13:30N 37°56' W 008°51'0 0.0
2017-Nov-14 13:00N 37°56' W 008°51'0 0.0
2017-Nov-14 12:30N 37°56' W 008°51'0 0.0
2017-Nov-14 12:00N 37°56' W 008°51'0 0.0
2017-Nov-14 11:30N 37°56' W 008°51'0 0.0
2017-Nov-14 11:00N 37°56' W 008°51'0 0.0
2017-Nov-14 10:30N 37°56' W 008°51'0 0.0
2017-Nov-14 10:00N 37°56' W 008°51'0 0.4
2017-Nov-14 09:30N 37°56' W 008°51'3 5.1
2017-Nov-14 09:00N 37°55' W 008°54'815.4
2017-Nov-14 08:30N 38°01' W 009°00'816.4
2017-Nov-14 08:00N 38°06' W 009°09'816.1
2017-Nov-14 07:31N 38°10' W 009°17'816.3
2017-Nov-14 07:00N 38°14' W 009°27'816.1
2017-Nov-14 06:31N 38°18' W 009°36'816.3
2017-Nov-14 06:00N 38°22' W 009°45'816.5
2017-Nov-14 05:30N 38°28' W 009°51'816.4
2017-Nov-14 05:00N 38°33' W 009°60'815.3
2017-Nov-14 04:30N 38°39' W 010°06'815.7
2017-Nov-14 04:01N 38°47' W 010°07'816.1
2017-Nov-14 03:30N 38°55' W 010°08'816.3
2017-Nov-14 03:00N 39°03' W 010°08'816.2
2017-Nov-14 02:30N 39°11' W 010°08'816.0
2017-Nov-14 02:00N 39°19' W 010°07'816.0
2017-Nov-14 01:30N 39°27' W 010°06'815.9
2017-Nov-14 01:00N 39°35' W 010°05'816.2
2017-Nov-14 00:30N 39°43' W 010°05'816.4
2017-Nov-13 23:59N 39°51' W 010°04'816.3
2017-Nov-13 23:30N 39°59' W 010°04'816.0
2017-Nov-13 23:00N 40°07' W 010°04'74616.1
2017-Nov-12 00:32N 52°12' W 005°49'115.3
2017-Nov-12 00:29N 52°13' W 005°49'815.7
2017-Nov-12 00:00N 52°20' W 005°48'816.2
2017-Nov-11 23:30N 52°28' W 005°46'10317.4
2017-Nov-11 17:35N 54°10' W 005°22'216.7
2017-Nov-11 17:27N 54°13' W 005°21'716.6
2017-Nov-11 17:00N 54°20' W 005°19'816.5
2017-Nov-11 16:30N 54°28' W 005°19'817.0
2017-Nov-11 16:01N 54°37' W 005°20'917.4
2017-Nov-11 15:30N 54°45' W 005°21'917.7
2017-Nov-11 15:01N 54°54' W 005°22'917.0
2017-Nov-11 14:30N 55°03' W 005°20'3215.7
2017-Nov-11 12:27N 55°32' W 004°56'716.6
2017-Nov-11 12:00N 55°39' W 004°58'815.7
2017-Nov-11 11:30N 55°47' W 004°58'5 0.2
2017-Nov-10 07:26N 55°52' W 004°56'715.9
2017-Nov-10 07:00N 55°45' W 004°59'5 9.4
2017-Nov-10 06:28N 55°40' W 004°58'612.4
2017-Nov-10 06:00N 55°34' W 004°57'1211.6
2017-Nov-10 04:59N 55°23' W 004°59'1713.0
2017-Nov-10 03:39N 55°08' W 005°16'213.9
2017-Nov-10 03:29N 55°06' W 005°18'714.4
2017-Nov-10 03:00N 54°60' W 005°22'713.7
2017-Nov-10 02:30N 54°53' W 005°21'713.7
2017-Nov-10 02:01N 54°46' W 005°18'612.7
2017-Nov-10 01:31N 54°40' W 005°15'612.3
2017-Nov-10 01:01N 54°34' W 005°12'612.9
2017-Nov-10 00:31N 54°28' W 005°10'713.1
2017-Nov-10 00:00N 54°22' W 005°07'713.4
2017-Nov-09 23:30N 54°15' W 005°04'713.7
2017-Nov-09 23:01N 54°08' W 005°01'4912.9
2017-Nov-09 19:12N 53°38' W 003°55'513.7
2017-Nov-09 18:50N 53°36' W 003°48'413.2
2017-Nov-09 18:30N 53°34' W 003°41'713.7
2017-Nov-09 18:00N 53°33' W 003°29'713.4
2017-Nov-09 17:30N 53°32' W 003°18'4 8.8
2017-Nov-09 17:00N 53°32' W 003°11'612.8
2017-Nov-09 16:30N 53°28' W 003°02'2 3.2
2017-Nov-09 16:00N 53°26' W 003°01'0 0.1
2017-Nov-09 15:30N 53°27' W 003°01'1 1.4
2017-Nov-09 15:00N 53°27' W 003°01'0 0.3
2017-Nov-09 14:30N 53°27' W 003°01'0 0.7
2017-Nov-09 13:59N 53°28' W 003°01'0 0.0
2017-Nov-09 13:29N 53°28' W 003°01'0 0.0
2017-Nov-09 12:38N 53°28' W 003°01'0 0.0
2017-Nov-09 12:26N 53°28' W 003°01'0 0.0
2017-Nov-09 11:59N 53°28' W 003°01'0 0.0
2017-Nov-09 11:29N 53°28' W 003°01'0 0.0
2017-Nov-09 10:59N 53°28' W 003°01'0 0.0
2017-Nov-09 10:29N 53°28' W 003°01'0 0.0
2017-Nov-09 09:59N 53°28' W 003°01'0 0.0
2017-Nov-09 09:29N 53°28' W 003°01'0 0.0
2017-Nov-09 08:53N 53°28' W 003°01'0 0.0
2017-Nov-09 08:29N 53°28' W 003°01'0 0.0
2017-Nov-09 07:59N 53°28' W 003°01'0 0.0
2017-Nov-09 07:29N 53°28' W 003°01'0 0.0
2017-Nov-09 06:59N 53°28' W 003°01'0 0.0
2017-Nov-09 06:29N 53°28' W 003°01'0 0.0
2017-Nov-09 05:59N 53°28' W 003°01'0 0.0
2017-Nov-09 05:29N 53°28' W 003°01'0 0.0
2017-Nov-09 04:56N 53°28' W 003°01'0 0.0
2017-Nov-09 04:29N 53°28' W 003°01'0 0.0
2017-Nov-09 03:59N 53°28' W 003°01'0 0.0
2017-Nov-09 03:29N 53°28' W 003°01'0 0.0
2017-Nov-09 02:59N 53°28' W 003°01'0 0.0
2017-Nov-09 02:29N 53°28' W 003°01'0 0.0
2017-Nov-09 01:59N 53°28' W 003°01'0 0.0
2017-Nov-09 01:29N 53°28' W 003°01'0 0.0
2017-Nov-09 00:56N 53°28' W 003°01'0 0.0
2017-Nov-09 00:29N 53°28' W 003°01'0 0.0
2017-Nov-08 23:59N 53°28' W 003°01'0 0.0
2017-Nov-08 23:26N 53°28' W 003°01'0 0.0
2017-Nov-08 22:59N 53°28' W 003°01'0 0.0
2017-Nov-08 22:26N 53°28' W 003°01'0 0.0
2017-Nov-08 21:59N 53°28' W 003°01'0 0.0
2017-Nov-08 21:29N 53°28' W 003°01'0 0.0
2017-Nov-08 20:59N 53°28' W 003°01'0 0.0
2017-Nov-08 20:26N 53°28' W 003°01'0 0.0
2017-Nov-08 19:56N 53°28' W 003°01'0 0.0
2017-Nov-08 19:26N 53°28' W 003°01'0 0.0
2017-Nov-08 18:59N 53°28' W 003°01'0 0.0
2017-Nov-08 18:29N 53°28' W 003°01'0 0.0
2017-Nov-08 17:59N 53°28' W 003°01'0 0.0
2017-Nov-08 17:29N 53°28' W 003°01'0 0.0
2017-Nov-08 16:59N 53°28' W 003°01'0 0.0
2017-Nov-08 16:29N 53°28' W 003°01'0 0.0
2017-Nov-08 15:59N 53°28' W 003°01'0 0.0
2017-Nov-08 15:29N 53°28' W 003°01'1 1.0
2017-Nov-08 15:00N 53°27' W 003°01'0 0.4
2017-Nov-08 14:30N 53°27' W 003°01'1 1.6
2017-Nov-08 14:00N 53°27' W 003°02'511.0
2017-Nov-08 13:31N 53°32' W 003°08'714.6
2017-Nov-08 13:00N 53°31' W 003°20'4 6.5
2017-Nov-08 12:28N 53°29' W 003°26'0 0.1
2017-Nov-08 12:01N 53°29' W 003°25'0 0.0
2017-Nov-08 11:31N 53°29' W 003°25'0 0.0
2017-Nov-08 11:01N 53°29' W 003°25'0 0.0
2017-Nov-08 10:31N 53°29' W 003°25'0 0.0
2017-Nov-08 09:58N 53°29' W 003°25'0 0.0
2017-Nov-08 09:28N 53°29' W 003°26'0 0.0
2017-Nov-08 09:01N 53°29' W 003°26'0 0.0
2017-Nov-08 08:30N 53°29' W 003°26'0 0.2
2017-Nov-08 07:58N 53°29' W 003°26'0 0.2
2017-Nov-08 07:28N 53°29' W 003°26'0 0.1
2017-Nov-08 07:01N 53°29' W 003°26'0 0.0
2017-Nov-08 06:28N 53°29' W 003°26'0 0.0
2017-Nov-08 05:58N 53°29' W 003°26'0 0.0
2017-Nov-08 05:27N 53°29' W 003°26'0 0.0
2017-Nov-08 05:01N 53°29' W 003°26'0 0.0
2017-Nov-08 04:27N 53°29' W 003°26'0 0.0
2017-Nov-08 04:00N 53°29' W 003°26'0 0.0
2017-Nov-08 03:31N 53°29' W 003°26'0 0.0
2017-Nov-08 03:01N 53°29' W 003°26'0 0.3
2017-Nov-08 02:28N 53°29' W 003°26'1 2.3
2017-Nov-08 02:01N 53°29' W 003°24'2 4.8
2017-Nov-08 01:30N 53°30' W 003°28'713.7
2017-Nov-08 01:00N 53°30' W 003°39'816.9
2017-Nov-08 00:30N 53°30' W 003°53'  
Track history (hours):
 
Tides and Currents Weather Stations Pressure Air Temp Water Temp Dewpoint Dewpoint Depression Visibility Wind Speed Wind Dir Waves Ship Positions

Wec Mondriaan

Last reported at 2017-Nov-16 21:56 UTC. Time now 2017-Nov-17 17:44 UTC.
Position N 41°19' W 008°53'.

Length 134 m; draft 7 m.

Type: Ship (hazmat cat A). MMSI: 255805775.

Date/timePositionNaut miles runAvg speedWind from/ knotsBaromVisibWave heightAir tempDewpointWater temp
2017-Nov-16 21:56N 41°19' W 008°53'716.0
2017-Nov-16 21:30N 41°12' W 008°50'612.3
2017-Nov-16 21:00N 41°10' W 008°42'2 3.7
2017-Nov-16 20:30N 41°12' W 008°41'0 0.0
2017-Nov-16 20:00N 41°12' W 008°41'0 0.0
2017-Nov-16 19:30N 41°12' W 008°41'0 0.0
2017-Nov-16 19:00N 41°12' W 008°41'0 0.0
2017-Nov-16 18:27N 41°12' W 008°41'0 0.0
2017-Nov-16 18:00N 41°12' W 008°41'0 0.0
2017-Nov-16 17:30N 41°12' W 008°41'0 0.0
2017-Nov-16 17:00N 41°12' W 008°41'0 0.0
2017-Nov-16 16:30N 41°12' W 008°41'0 0.0
2017-Nov-16 16:00N 41°12' W 008°41'0 0.0
2017-Nov-16 15:30N 41°12' W 008°41'0 0.0
2017-Nov-16 15:00N 41°12' W 008°41'0 0.0
2017-Nov-16 14:30N 41°12' W 008°41'0 0.0
2017-Nov-16 14:00N 41°12' W 008°41'0 0.0
2017-Nov-16 13:30N 41°12' W 008°41'0 0.0
2017-Nov-16 13:00N 41°12' W 008°41'0 0.0
2017-Nov-16 12:30N 41°12' W 008°41'0 0.0
2017-Nov-16 12:00N 41°12' W 008°41'0 0.0
2017-Nov-16 11:30N 41°12' W 008°41'0 0.0
2017-Nov-16 11:00N 41°12' W 008°41'0 0.0
2017-Nov-16 10:30N 41°12' W 008°41'0 0.0
2017-Nov-16 10:00N 41°12' W 008°41'0 0.0
2017-Nov-16 09:30N 41°12' W 008°41'0 0.0
2017-Nov-16 09:00N 41°12' W 008°41'0 0.0
2017-Nov-16 08:30N 41°12' W 008°41'0 0.0
2017-Nov-16 08:00N 41°12' W 008°41'0 0.0
2017-Nov-16 07:30N 41°12' W 008°41'0 0.2
2017-Nov-16 07:01N 41°12' W 008°41'1 2.2
2017-Nov-16 06:30N 41°11' W 008°42'3 5.4
2017-Nov-16 06:01N 41°10' W 008°45'714.6
2017-Nov-16 05:31N 41°10' W 008°55'7 4.5
2017-Nov-16 03:53N 41°14' W 009°03'715.0
2017-Nov-16 03:25N 41°08' W 009°03'614.7
2017-Nov-16 03:00N 41°01' W 009°02'2114.9
2017-Nov-16 01:35N 40°40' W 009°02'116.4
2017-Nov-16 01:30N 40°39' W 009°03'4817.8
2017-Nov-15 22:48N 39°55' W 009°29'818.0
2017-Nov-15 22:20N 39°48' W 009°34'617.7
2017-Nov-15 22:00N 39°42' W 009°37'917.2
2017-Nov-15 21:30N 39°34' W 009°41'917.1
2017-Nov-15 21:00N 39°26' W 009°44'917.7
2017-Nov-15 20:30N 39°17' W 009°44'917.7
2017-Nov-15 20:00N 39°09' W 009°43'917.6
2017-Nov-15 19:30N 38°60' W 009°43'917.7
2017-Nov-15 19:01N 38°51' W 009°43'917.5
2017-Nov-15 18:31N 38°42' W 009°42'816.7
2017-Nov-15 18:01N 38°36' W 009°35'917.7
2017-Nov-15 17:30N 38°29' W 009°27'917.8
2017-Nov-15 17:00N 38°23' W 009°19'917.4
2017-Nov-15 16:31N 38°19' W 009°09'815.0
2017-Nov-15 16:00N 38°24' W 009°01'714.2
2017-Nov-15 15:30N 38°30' W 008°56'3 5.3
2017-Nov-15 14:58N 38°31' W 008°52'0 0.0
2017-Nov-15 14:28N 38°31' W 008°52'0 0.0
2017-Nov-15 13:55N 38°31' W 008°52'0 0.0
2017-Nov-15 13:28N 38°31' W 008°52'0 0.0
2017-Nov-15 12:58N 38°31' W 008°52'0 0.0
2017-Nov-15 12:28N 38°31' W 008°52'0 0.0
2017-Nov-15 11:49N 38°31' W 008°52'0 0.0
2017-Nov-15 11:28N 38°31' W 008°52'0 0.0
2017-Nov-15 10:58N 38°31' W 008°52'0 0.0
2017-Nov-15 10:28N 38°31' W 008°52'0 0.0
2017-Nov-15 09:58N 38°31' W 008°52'0 0.0
2017-Nov-15 09:16N 38°31' W 008°52'0 0.0
2017-Nov-15 08:58N 38°31' W 008°52'0 0.0
2017-Nov-15 08:28N 38°31' W 008°52'0 0.0
2017-Nov-15 07:58N 38°31' W 008°52'0 0.0
2017-Nov-15 07:25N 38°31' W 008°52'0 0.0
2017-Nov-15 06:58N 38°31' W 008°52'0 0.0
2017-Nov-15 06:28N 38°31' W 008°52'0 0.0
2017-Nov-15 05:58N 38°31' W 008°52'0 0.0
2017-Nov-15 05:28N 38°31' W 008°52'0 0.0
2017-Nov-15 04:58N 38°31' W 008°52'0 0.0
2017-Nov-15 04:25N 38°31' W 008°52'0 0.0
2017-Nov-15 03:58N 38°31' W 008°52'0 0.0
2017-Nov-15 03:28N 38°31' W 008°52'0 0.0
2017-Nov-15 02:58N 38°31' W 008°52'0 0.0
2017-Nov-15 02:28N 38°31' W 008°52'0 0.0
2017-Nov-15 01:58N 38°31' W 008°52'0 0.0
2017-Nov-15 01:28N 38°31' W 008°52'0 0.0
2017-Nov-15 00:58N 38°31' W 008°52'0 0.0
2017-Nov-15 00:28N 38°31' W 008°52'0 0.0
2017-Nov-14 23:58N 38°31' W 008°52'0 0.0
2017-Nov-14 23:31N 38°31' W 008°52'1 3.0
2017-Nov-14 23:01N 38°31' W 008°54'611.9
2017-Nov-14 22:30N 38°26' W 008°59'714.2
2017-Nov-14 22:01N 38°19' W 008°59'917.9
2017-Nov-14 21:31N 38°10' W 008°59'917.9
2017-Nov-14 21:01N 38°01' W 008°59'816.7
2017-Nov-14 20:31N 37°55' W 008°52'2 3.2
2017-Nov-14 20:00N 37°56' W 008°51'0 0.0
2017-Nov-14 19:30N 37°56' W 008°51'0 0.0
2017-Nov-14 19:00N 37°56' W 008°51'0 0.0
2017-Nov-14 18:30N 37°56' W 008°51'0 0.0
2017-Nov-14 18:00N 37°56' W 008°51'0 0.0
2017-Nov-14 17:30N 37°56' W 008°51'0 0.0
2017-Nov-14 17:00N 37°56' W 008°51'0 0.0
2017-Nov-14 16:30N 37°56' W 008°51'0 0.0
2017-Nov-14 16:00N 37°56' W 008°51'0 0.0
2017-Nov-14 15:30N 37°56' W 008°51'0 0.0
2017-Nov-14 15:00N 37°56' W 008°51'0 0.0
2017-Nov-14 14:30N 37°56' W 008°51'0 0.0
2017-Nov-14 14:00N 37°56' W 008°51'0 0.0
2017-Nov-14 13:30N 37°56' W 008°51'0 0.0
2017-Nov-14 13:00N 37°56' W 008°51'0 0.0
2017-Nov-14 12:30N 37°56' W 008°51'0 0.0
2017-Nov-14 12:00N 37°56' W 008°51'0 0.0
2017-Nov-14 11:30N 37°56' W 008°51'0 0.0
2017-Nov-14 11:00N 37°56' W 008°51'0 0.0
2017-Nov-14 10:30N 37°56' W 008°51'0 0.0
2017-Nov-14 10:00N 37°56' W 008°51'0 0.4
2017-Nov-14 09:30N 37°56' W 008°51'3 5.1
2017-Nov-14 09:00N 37°55' W 008°54'815.4
2017-Nov-14 08:30N 38°01' W 009°00'816.4
2017-Nov-14 08:00N 38°06' W 009°09'816.1
2017-Nov-14 07:31N 38°10' W 009°17'816.3
2017-Nov-14 07:00N 38°14' W 009°27'816.1
2017-Nov-14 06:31N 38°18' W 009°36'816.3
2017-Nov-14 06:00N 38°22' W 009°45'816.5
2017-Nov-14 05:30N 38°28' W 009°51'816.4
2017-Nov-14 05:00N 38°33' W 009°60'815.3
2017-Nov-14 04:30N 38°39' W 010°06'815.7
2017-Nov-14 04:01N 38°47' W 010°07'816.1
2017-Nov-14 03:30N 38°55' W 010°08'816.3
2017-Nov-14 03:00N 39°03' W 010°08'816.2
2017-Nov-14 02:30N 39°11' W 010°08'816.0
2017-Nov-14 02:00N 39°19' W 010°07'816.0
2017-Nov-14 01:30N 39°27' W 010°06'815.9
2017-Nov-14 01:00N 39°35' W 010°05'816.2
2017-Nov-14 00:30N 39°43' W 010°05'816.4
2017-Nov-13 23:59N 39°51' W 010°04'816.3
2017-Nov-13 23:30N 39°59' W 010°04'816.0
2017-Nov-13 23:00N 40°07' W 010°04'74616.1
2017-Nov-12 00:32N 52°12' W 005°49'115.3
2017-Nov-12 00:29N 52°13' W 005°49'815.7
2017-Nov-12 00:00N 52°20' W 005°48'816.2
2017-Nov-11 23:30N 52°28' W 005°46'10317.4
2017-Nov-11 17:35N 54°10' W 005°22'216.7
2017-Nov-11 17:27N 54°13' W 005°21'716.6
2017-Nov-11 17:00N 54°20' W 005°19'816.5
2017-Nov-11 16:30N 54°28' W 005°19'817.0
2017-Nov-11 16:01N 54°37' W 005°20'917.4
2017-Nov-11 15:30N 54°45' W 005°21'917.7
2017-Nov-11 15:01N 54°54' W 005°22'917.0
2017-Nov-11 14:30N 55°03' W 005°20'3215.7
2017-Nov-11 12:27N 55°32' W 004°56'716.6
2017-Nov-11 12:00N 55°39' W 004°58'815.7
2017-Nov-11 11:30N 55°47' W 004°58'5 0.2
2017-Nov-10 07:26N 55°52' W 004°56'715.9
2017-Nov-10 07:00N 55°45' W 004°59'5 9.4
2017-Nov-10 06:28N 55°40' W 004°58'612.4
2017-Nov-10 06:00N 55°34' W 004°57'1211.6
2017-Nov-10 04:59N 55°23' W 004°59'1713.0
2017-Nov-10 03:39N 55°08' W 005°16'213.9
2017-Nov-10 03:29N 55°06' W 005°18'714.4
2017-Nov-10 03:00N 54°60' W 005°22'713.7
2017-Nov-10 02:30N 54°53' W 005°21'713.7
2017-Nov-10 02:01N 54°46' W 005°18'612.7
2017-Nov-10 01:31N 54°40' W 005°15'612.3
2017-Nov-10 01:01N 54°34' W 005°12'612.9
2017-Nov-10 00:31N 54°28' W 005°10'713.1
2017-Nov-10 00:00N 54°22' W 005°07'713.4
2017-Nov-09 23:30N 54°15' W 005°04'713.7
2017-Nov-09 23:01N 54°08' W 005°01'4912.9
2017-Nov-09 19:12N 53°38' W 003°55'513.7
2017-Nov-09 18:50N 53°36' W 003°48'413.2
2017-Nov-09 18:30N 53°34' W 003°41'713.7
2017-Nov-09 18:00N 53°33' W 003°29'713.4
2017-Nov-09 17:30N 53°32' W 003°18'4 8.8
2017-Nov-09 17:00N 53°32' W 003°11'612.8
2017-Nov-09 16:30N 53°28' W 003°02'2 3.2
2017-Nov-09 16:00N 53°26' W 003°01'0 0.1
2017-Nov-09 15:30N 53°27' W 003°01'1 1.4
2017-Nov-09 15:00N 53°27' W 003°01'0 0.3
2017-Nov-09 14:30N 53°27' W 003°01'0 0.7
2017-Nov-09 13:59N 53°28' W 003°01'0 0.0
2017-Nov-09 13:29N 53°28' W 003°01'0 0.0
2017-Nov-09 12:38N 53°28' W 003°01'0 0.0
2017-Nov-09 12:26N 53°28' W 003°01'0 0.0
2017-Nov-09 11:59N 53°28' W 003°01'0 0.0
2017-Nov-09 11:29N 53°28' W 003°01'0 0.0
2017-Nov-09 10:59N 53°28' W 003°01'0 0.0
2017-Nov-09 10:29N 53°28' W 003°01'0 0.0
2017-Nov-09 09:59N 53°28' W 003°01'0 0.0
2017-Nov-09 09:29N 53°28' W 003°01'0 0.0
2017-Nov-09 08:53N 53°28' W 003°01'0 0.0
2017-Nov-09 08:29N 53°28' W 003°01'0 0.0
2017-Nov-09 07:59N 53°28' W 003°01'0 0.0
2017-Nov-09 07:29N 53°28' W 003°01'0 0.0
2017-Nov-09 06:59N 53°28' W 003°01'0 0.0
2017-Nov-09 06:29N 53°28' W 003°01'0 0.0
2017-Nov-09 05:59N 53°28' W 003°01'0 0.0
2017-Nov-09 05:29N 53°28' W 003°01'0 0.0
2017-Nov-09 04:56N 53°28' W 003°01'0 0.0
2017-Nov-09 04:29N 53°28' W 003°01'0 0.0
2017-Nov-09 03:59N 53°28' W 003°01'0 0.0
2017-Nov-09 03:29N 53°28' W 003°01'0 0.0
2017-Nov-09 02:59N 53°28' W 003°01'0 0.0
2017-Nov-09 02:29N 53°28' W 003°01'0 0.0
2017-Nov-09 01:59N 53°28' W 003°01'0 0.0
2017-Nov-09 01:29N 53°28' W 003°01'0 0.0
2017-Nov-09 00:56N 53°28' W 003°01'0 0.0
2017-Nov-09 00:29N 53°28' W 003°01'0 0.0
2017-Nov-08 23:59N 53°28' W 003°01'0 0.0
2017-Nov-08 23:26N 53°28' W 003°01'0 0.0
2017-Nov-08 22:59N 53°28' W 003°01'0 0.0
2017-Nov-08 22:26N 53°28' W 003°01'0 0.0
2017-Nov-08 21:59N 53°28' W 003°01'0 0.0
2017-Nov-08 21:29N 53°28' W 003°01'0 0.0
2017-Nov-08 20:59N 53°28' W 003°01'0 0.0
2017-Nov-08 20:26N 53°28' W 003°01'0 0.0
2017-Nov-08 19:56N 53°28' W 003°01'0 0.0
2017-Nov-08 19:26N 53°28' W 003°01'0 0.0
2017-Nov-08 18:59N 53°28' W 003°01'0 0.0
2017-Nov-08 18:29N 53°28' W 003°01'0 0.0
2017-Nov-08 17:59N 53°28' W 003°01'0 0.0
2017-Nov-08 17:29N 53°28' W 003°01'0 0.0
2017-Nov-08 16:59N 53°28' W 003°01'0 0.0
2017-Nov-08 16:29N 53°28' W 003°01'0 0.0
2017-Nov-08 15:59N 53°28' W 003°01'0 0.0
2017-Nov-08 15:29N 53°28' W 003°01'1 1.0
2017-Nov-08 15:00N 53°27' W 003°01'0 0.4
2017-Nov-08 14:30N 53°27' W 003°01'1 1.6
2017-Nov-08 14:00N 53°27' W 003°02'511.0
2017-Nov-08 13:31N 53°32' W 003°08'714.6
2017-Nov-08 13:00N 53°31' W 003°20'4 6.5
2017-Nov-08 12:28N 53°29' W 003°26'0 0.1
2017-Nov-08 12:01N 53°29' W 003°25'0 0.0
2017-Nov-08 11:31N 53°29' W 003°25'0 0.0
2017-Nov-08 11:01N 53°29' W 003°25'0 0.0
2017-Nov-08 10:31N 53°29' W 003°25'0 0.0
2017-Nov-08 09:58N 53°29' W 003°25'0 0.0
2017-Nov-08 09:28N 53°29' W 003°26'0 0.0
2017-Nov-08 09:01N 53°29' W 003°26'0 0.0
2017-Nov-08 08:30N 53°29' W 003°26'0 0.2
2017-Nov-08 07:58N 53°29' W 003°26'0 0.2
2017-Nov-08 07:28N 53°29' W 003°26'0 0.1
2017-Nov-08 07:01N 53°29' W 003°26'0 0.0
2017-Nov-08 06:28N 53°29' W 003°26'0 0.0
2017-Nov-08 05:58N 53°29' W 003°26'0 0.0
2017-Nov-08 05:27N 53°29' W 003°26'0 0.0
2017-Nov-08 05:01N 53°29' W 003°26'0 0.0
2017-Nov-08 04:27N 53°29' W 003°26'0 0.0
2017-Nov-08 04:00N 53°29' W 003°26'0 0.0
2017-Nov-08 03:31N 53°29' W 003°26'0 0.0
2017-Nov-08 03:01N 53°29' W 003°26'0 0.3
2017-Nov-08 02:28N 53°29' W 003°26'1 2.3
2017-Nov-08 02:01N 53°29' W 003°24'2 4.8
2017-Nov-08 01:30N 53°30' W 003°28'713.7
2017-Nov-08 01:00N 53°30' W 003°39'816.9
2017-Nov-08 00:30N 53°30' W 003°53'  

Dump ship's entire track history